createdAt,value
2023-04-29T02:55:36.545Z,7.10
2023-04-29T02:58:04.264Z,7.60
2023-04-29T03:00:30.865Z,7.00
2023-04-29T03:02:57.746Z,7.10
2023-04-29T03:05:24.549Z,6.90
2023-04-29T03:07:51.152Z,6.90
2023-04-29T03:10:19.126Z,7.00
2023-04-29T03:12:45.785Z,6.90
2023-04-29T03:15:12.561Z,6.90
2023-04-29T03:17:39.271Z,7.10
2023-04-29T03:20:06.311Z,7.10
2023-04-29T03:22:32.889Z,6.90
2023-04-29T03:24:59.454Z,6.90
2023-04-29T03:27:26.017Z,6.70
2023-04-29T03:29:53.075Z,6.90
2023-04-29T03:32:19.839Z,7.00
2023-04-29T03:34:46.470Z,7.30
2023-04-29T03:37:13.158Z,6.80
2023-04-29T03:39:39.753Z,6.80
2023-04-29T03:42:06.641Z,6.90
2023-04-29T03:44:33.238Z,7.00
2023-04-29T03:46:59.804Z,6.90
2023-04-29T03:49:26.409Z,7.00
2023-04-29T03:51:53.574Z,6.90
2023-04-29T03:54:20.180Z,6.90
2023-04-29T03:56:46.805Z,6.90
2023-04-29T03:59:13.397Z,6.80
2023-04-29T04:01:40.057Z,7.10
2023-04-29T04:04:06.988Z,7.20
2023-04-29T04:06:33.713Z,6.80
2023-04-29T04:09:00.449Z,6.90
2023-04-29T04:11:27.063Z,6.80
2023-04-29T04:13:53.636Z,7.20
2023-04-29T04:16:20.258Z,6.90
2023-04-29T04:18:46.880Z,6.10
2023-04-29T04:21:13.512Z,7.10
2023-04-29T04:23:44.109Z,7.10
2023-04-29T04:26:10.763Z,7.60
2023-04-29T04:28:37.432Z,7.30
2023-04-29T04:31:05.572Z,7.50
2023-04-29T04:33:32.265Z,7.70
2023-04-29T04:35:58.907Z,7.40
2023-04-29T04:38:26.337Z,7.60
2023-04-29T04:40:52.937Z,7.40
2023-04-29T04:43:19.723Z,7.60
2023-04-29T04:45:46.492Z,7.50
2023-04-29T04:53:07.269Z,7.50
2023-04-29T04:55:34.064Z,8.00
2023-04-29T04:58:00.901Z,8.00
2023-04-29T05:00:27.483Z,7.30
2023-04-29T05:02:54.170Z,7.90
2023-04-29T05:05:21.084Z,7.90
2023-04-29T05:20:03.531Z,8.60
2023-04-29T05:25:02.745Z,8.50
2023-04-29T05:32:23.907Z,8.70
2023-04-29T05:52:04.194Z,9.20
2023-04-29T05:56:58.145Z,9.40
2023-04-29T05:59:24.869Z,9.70
2023-04-29T06:01:51.474Z,9.60
2023-04-29T06:04:18.349Z,9.30
2023-04-29T06:06:45.135Z,9.80
2023-04-29T06:11:51.176Z,9.70
2023-04-29T06:14:17.780Z,9.60
2023-04-29T06:19:12.029Z,10.10
2023-04-29T06:21:38.616Z,10.60
2023-04-29T09:04:05.079Z,17.10
2023-04-29T09:06:33.387Z,17.00
2023-04-29T09:09:01.040Z,17.30
2023-04-29T09:13:58.990Z,17.50
2023-04-29T09:16:27.524Z,17.90
2023-04-29T09:18:55.223Z,16.80
2023-04-29T09:21:22.858Z,17.10
2023-04-29T09:23:51.118Z,17.80
2023-04-29T09:26:17.834Z,18.40
2023-04-29T09:33:52.728Z,17.70
2023-04-29T09:36:38.486Z,17.10
2023-04-29T09:39:11.946Z,17.20
2023-04-29T09:41:43.198Z,17.20
2023-04-29T09:44:10.541Z,16.90
2023-04-29T09:46:37.724Z,16.10
2023-04-29T09:51:34.976Z,17.30
2023-04-29T09:54:03.588Z,17.50
2023-04-29T09:56:48.181Z,19.40
2023-04-29T09:59:15.028Z,18.90
2023-04-29T10:01:42.002Z,17.40
2023-04-29T10:04:11.079Z,18.80
2023-04-29T10:09:07.268Z,17.40
2023-04-29T10:11:34.430Z,17.90
2023-04-29T10:14:01.411Z,18.70
2023-04-29T10:16:29.902Z,19.40
2023-04-29T10:21:44.203Z,18.20
2023-04-29T10:24:13.552Z,19.30
2023-04-29T10:26:42.050Z,19.30
2023-04-29T10:29:11.852Z,18.70
2023-04-29T10:31:39.734Z,18.20
2023-04-29T10:34:06.432Z,19.40
2023-04-29T10:39:01.755Z,17.20
2023-04-29T10:43:55.765Z,17.50
2023-04-29T10:46:23.863Z,17.60
2023-04-29T10:48:55.842Z,18.00
2023-04-29T10:51:36.349Z,18.50
2023-04-29T10:54:10.747Z,17.60
2023-04-29T10:56:38.392Z,17.70
2023-04-29T11:23:38.705Z,16.70
2023-04-29T11:26:05.545Z,16.90
2023-04-29T11:28:32.863Z,16.60
2023-04-29T11:30:59.980Z,17.10
2023-04-29T11:33:28.263Z,17.40
2023-04-29T11:35:55.351Z,16.70
2023-04-29T11:45:45.599Z,15.80
2023-04-29T11:48:23.277Z,15.70
2023-04-29T11:50:51.204Z,15.80
2023-04-29T11:55:45.392Z,15.50
2023-04-29T11:58:12.125Z,15.70
2023-04-29T12:00:39.314Z,15.90
2023-04-29T12:03:16.235Z,15.50
2023-04-29T12:05:46.840Z,15.70
2023-04-29T12:08:13.680Z,15.70
2023-04-29T12:10:40.998Z,15.80
2023-04-29T12:13:10.081Z,15.80
2023-04-29T12:15:38.899Z,15.90
2023-04-29T12:18:07.325Z,16.00
2023-04-29T12:20:34.291Z,15.90
2023-04-29T12:23:13.587Z,15.90
2023-04-29T12:25:43.214Z,16.00
2023-04-29T12:28:13.352Z,16.10
2023-04-29T12:30:39.964Z,15.90
2023-04-29T12:33:09.918Z,16.00
2023-04-29T12:35:39.536Z,16.10
2023-04-29T12:38:06.379Z,16.30
2023-04-29T12:40:33.883Z,16.00
2023-04-29T12:43:06.917Z,16.20
2023-04-29T12:45:34.389Z,16.30
2023-04-29T12:48:02.258Z,16.30
2023-04-29T12:50:33.264Z,16.30
2023-04-29T12:53:00.361Z,16.10
2023-04-29T12:55:27.411Z,16.10
2023-04-29T12:57:54.217Z,16.00
2023-04-29T13:00:20.965Z,15.90
2023-04-29T13:02:47.908Z,15.80
2023-04-29T13:05:14.666Z,15.80
2023-04-29T13:10:08.914Z,15.50
2023-04-29T13:12:35.618Z,15.50
2023-04-29T13:15:04.415Z,15.30
2023-04-29T13:17:30.989Z,15.50
2023-04-29T13:19:57.595Z,15.60
2023-04-29T13:22:24.160Z,15.60
2023-04-29T13:24:50.749Z,15.80
2023-04-29T13:27:17.523Z,16.80
2023-04-29T13:29:44.328Z,16.10
2023-04-29T13:32:11.446Z,16.20
2023-04-29T13:34:38.161Z,16.20
2023-04-29T13:37:04.761Z,16.20
2023-04-29T13:39:31.718Z,16.20
2023-04-29T13:41:59.721Z,15.70
2023-04-29T13:44:34.193Z,15.70
2023-04-29T13:47:05.295Z,15.40
2023-04-29T13:50:10.000Z,15.10
2023-04-29T13:55:25.888Z,14.60
2023-04-29T14:00:25.352Z,14.20
2023-04-29T14:05:25.762Z,14.00
2023-04-29T14:07:52.460Z,14.00
2023-04-29T14:10:19.097Z,14.00
2023-04-29T14:12:45.670Z,14.00
2023-04-29T14:15:12.254Z,13.80
2023-04-29T14:17:38.870Z,13.90
2023-04-29T14:20:05.826Z,13.70
2023-04-29T14:22:32.397Z,14.00
2023-04-29T14:24:58.962Z,13.80
2023-04-29T14:27:25.603Z,13.80
2023-04-29T14:29:52.658Z,13.50
2023-04-29T14:32:19.238Z,13.80
2023-04-29T14:34:45.836Z,14.00
2023-04-29T14:37:12.455Z,13.70
2023-04-29T14:39:39.035Z,14.00
2023-04-29T14:42:06.356Z,14.00
2023-04-29T14:44:33.280Z,14.10
2023-04-29T14:46:59.936Z,14.50
2023-04-29T14:49:27.012Z,14.70
2023-04-29T14:51:54.482Z,14.40
2023-04-29T14:54:21.135Z,14.60
2023-04-29T14:56:47.710Z,14.80
2023-04-29T14:59:14.273Z,15.10
2023-04-29T15:01:40.940Z,15.20
2023-04-29T15:04:07.967Z,15.00
2023-04-29T15:06:35.150Z,15.10
2023-04-29T15:09:01.867Z,15.00
2023-04-29T15:11:28.431Z,15.00
2023-04-29T15:13:55.029Z,15.00
2023-04-29T15:16:21.697Z,15.20
2023-04-29T15:18:48.301Z,14.90
2023-04-29T15:21:14.907Z,14.90
2023-04-29T15:23:41.603Z,15.10
2023-04-29T15:26:08.300Z,14.90
2023-04-29T15:28:34.872Z,14.80
2023-04-29T15:31:03.819Z,14.80
2023-04-29T15:33:30.537Z,14.90
2023-04-29T15:35:57.794Z,14.60
2023-04-29T15:38:24.433Z,14.50
2023-04-29T15:40:51.044Z,14.50
2023-04-29T15:43:17.616Z,14.30
2023-04-29T15:45:44.466Z,14.50
2023-04-29T15:48:11.101Z,14.40
2023-04-29T15:50:37.718Z,14.30
2023-04-29T15:53:04.326Z,14.20
2023-04-29T15:55:31.040Z,14.10
2023-04-29T15:57:57.722Z,14.20
2023-04-29T16:00:24.550Z,14.00
2023-04-29T16:02:51.119Z,14.10
2023-04-29T16:05:17.705Z,13.90
2023-04-29T16:07:44.618Z,13.80
2023-04-29T16:10:11.232Z,14.20
2023-04-29T16:12:37.941Z,13.80
2023-04-29T16:15:05.577Z,13.70
2023-04-29T16:17:32.535Z,13.70
2023-04-29T16:19:59.176Z,13.60
2023-04-29T16:22:27.834Z,13.60
2023-04-29T16:24:55.441Z,13.50
2023-04-29T16:27:22.579Z,13.90
2023-04-29T16:29:49.205Z,13.10
2023-04-29T16:32:15.876Z,12.90
2023-04-29T16:34:42.587Z,13.20
2023-04-29T16:37:12.493Z,13.10
2023-04-29T16:39:39.488Z,12.80
2023-04-29T16:42:06.345Z,13.00
2023-04-29T16:44:32.936Z,14.80
2023-04-29T16:46:59.572Z,14.20
2023-04-29T16:49:29.395Z,12.80
2023-04-29T16:51:56.087Z,12.80
2023-04-29T16:54:23.325Z,12.80
2023-04-29T17:01:45.195Z,13.10
2023-04-29T17:04:11.982Z,13.10
2023-04-29T17:06:40.627Z,12.60
2023-04-29T17:09:07.673Z,12.20
2023-04-29T17:11:34.315Z,12.50
2023-04-29T17:14:00.951Z,14.40
2023-04-29T17:16:28.936Z,12.40
2023-04-29T17:18:55.677Z,14.70
2023-04-29T17:21:26.030Z,12.10
2023-04-29T17:23:53.378Z,12.00
2023-04-29T17:26:21.144Z,12.00
2023-04-29T17:28:47.938Z,12.20
2023-04-29T17:31:15.397Z,12.10
2023-04-29T17:33:54.501Z,12.30
2023-04-29T17:36:22.427Z,11.90
2023-04-29T17:38:49.105Z,11.90
2023-04-29T17:41:15.711Z,11.80
2023-04-29T17:43:42.376Z,12.10
2023-04-29T17:46:09.067Z,11.70
2023-04-29T17:48:35.702Z,11.70
2023-04-29T17:51:02.394Z,11.40
2023-04-29T17:53:28.978Z,13.90
2023-04-29T17:55:55.573Z,11.40
2023-04-29T17:58:22.165Z,11.80
2023-04-29T18:00:48.927Z,13.70
2023-04-29T18:03:15.807Z,11.60
2023-04-29T18:05:42.497Z,12.40
2023-04-29T18:08:09.180Z,11.60
2023-04-29T18:10:35.918Z,13.80
2023-04-29T18:13:03.373Z,13.30
2023-04-29T18:15:30.287Z,13.60
2023-04-29T18:17:56.957Z,11.70
2023-04-29T18:20:23.621Z,13.20
2023-04-29T18:22:50.713Z,12.20
2023-04-29T18:25:17.453Z,14.20
2023-04-29T18:27:44.492Z,11.60
2023-04-29T18:30:11.301Z,11.40
2023-04-29T18:32:38.351Z,12.00
2023-04-29T18:35:05.247Z,12.10
2023-04-29T18:37:31.978Z,12.00
2023-04-29T18:39:58.598Z,11.20
2023-04-29T18:42:25.925Z,13.10
2023-04-29T18:44:52.755Z,11.70
2023-04-29T18:47:19.413Z,10.80
2023-04-29T18:49:46.068Z,11.40
2023-04-29T18:52:12.719Z,11.40
2023-04-29T18:54:39.410Z,11.00
2023-04-29T18:57:06.290Z,11.80
2023-04-29T18:59:35.931Z,12.50
2023-04-29T19:02:03.253Z,10.90
2023-04-29T19:04:29.940Z,11.00
2023-04-29T19:06:57.195Z,13.20
2023-04-29T19:09:23.842Z,11.30
2023-04-29T19:11:50.520Z,11.20
2023-04-29T19:14:17.169Z,12.90
2023-04-29T19:16:43.863Z,11.30
2023-04-29T19:19:10.674Z,12.70
2023-04-29T19:21:37.551Z,10.10
2023-04-29T19:24:04.276Z,10.60
2023-04-29T19:26:32.887Z,11.50
2023-04-29T19:29:01.471Z,10.70
2023-04-29T19:31:28.158Z,10.70
2023-04-29T19:33:54.833Z,11.20
2023-04-29T19:36:21.568Z,11.30
2023-04-29T19:38:49.136Z,10.70
2023-04-29T19:41:16.214Z,10.40
2023-04-29T19:43:43.058Z,10.70
2023-04-29T19:46:15.840Z,10.60
2023-04-29T19:48:43.055Z,11.50
2023-04-29T19:51:09.685Z,11.00
2023-04-29T19:53:36.779Z,10.30
2023-04-29T19:56:03.441Z,10.40
2023-04-29T19:58:30.004Z,11.30
2023-04-29T20:00:56.753Z,10.70
2023-04-29T20:03:23.616Z,10.60
2023-04-29T20:05:50.302Z,12.10
2023-04-29T20:08:16.908Z,12.80
2023-04-29T20:10:43.549Z,10.50
2023-04-29T20:13:10.197Z,13.10
2023-04-29T20:15:36.839Z,12.90
2023-04-29T20:18:03.606Z,10.60
2023-04-29T20:20:30.537Z,11.30
2023-04-29T20:23:00.236Z,10.60
2023-04-29T20:25:27.440Z,11.40
2023-04-29T20:27:54.314Z,10.70
2023-04-29T20:30:21.634Z,12.40
2023-04-29T20:32:48.400Z,11.30
2023-04-29T20:35:15.725Z,10.70
2023-04-29T20:37:42.312Z,12.70
2023-04-29T20:40:09.783Z,10.30
2023-04-29T20:42:36.549Z,11.40
2023-04-29T20:45:03.449Z,10.90
2023-04-29T20:47:30.107Z,11.30
2023-04-29T20:49:56.784Z,10.10
2023-04-29T20:52:24.182Z,10.50
2023-04-29T20:54:52.533Z,10.90
2023-04-29T20:57:19.272Z,10.70
2023-04-29T20:59:45.928Z,11.10
2023-04-29T21:02:12.569Z,10.10
2023-04-29T21:04:39.343Z,10.20
2023-04-29T21:07:07.675Z,10.40
2023-04-29T21:09:35.783Z,10.60
2023-04-29T21:12:06.125Z,10.80
2023-04-29T21:14:33.300Z,11.10
2023-04-29T21:17:00.003Z,11.00
2023-04-29T21:19:26.655Z,12.30
2023-04-29T21:21:53.256Z,11.80
2023-04-29T21:24:19.837Z,10.90
2023-04-29T21:26:46.490Z,12.90
2023-04-29T21:29:13.081Z,10.60
2023-04-29T21:34:06.887Z,10.80
2023-04-29T21:36:33.497Z,10.60
2023-04-29T21:39:00.153Z,13.10
2023-04-29T21:41:28.312Z,10.20
2023-04-29T21:43:57.316Z,9.80
2023-04-29T21:46:24.842Z,10.80
2023-04-29T21:48:51.523Z,10.30
2023-04-29T21:51:19.613Z,10.00
2023-04-29T21:53:46.224Z,9.80
2023-04-29T21:56:12.909Z,12.30
2023-04-29T21:58:40.359Z,9.90
2023-04-29T22:01:26.243Z,11.50
2023-04-29T22:03:53.623Z,9.80
2023-04-29T22:06:20.468Z,10.50
2023-04-29T22:08:47.223Z,10.00
2023-04-29T22:11:13.958Z,10.20
2023-04-29T22:13:40.822Z,10.40
2023-04-29T22:16:08.144Z,9.30
2023-04-29T22:18:34.754Z,10.40
2023-04-29T22:21:01.399Z,11.30
2023-04-29T22:30:50.170Z,10.20
2023-04-29T22:33:16.799Z,10.20
2023-04-29T22:35:43.489Z,10.10
2023-04-29T22:38:10.407Z,10.10
2023-04-29T22:43:04.090Z,10.20
2023-04-29T22:50:25.806Z,10.30
2023-04-29T22:52:52.430Z,10.20
2023-04-29T22:55:19.001Z,10.20
2023-04-29T22:57:45.588Z,9.90
2023-04-29T23:41:56.913Z,9.80
2023-04-29T23:44:25.121Z,9.10
2023-04-29T23:46:51.780Z,11.10
2023-04-29T23:49:18.372Z,8.70
2023-04-29T23:51:44.965Z,8.80
2023-04-29T23:54:11.561Z,9.10
2023-04-29T23:56:38.187Z,11.00
2023-04-29T23:59:04.767Z,11.30
